createdAt,value
2022-09-23T00:02:24.750Z,100869.16
2022-09-23T00:04:53.923Z,100864.78
2022-09-23T00:07:21.721Z,100870.06
2022-09-23T00:09:51.215Z,100858.69
2022-09-23T00:12:18.998Z,100859.41
2022-09-23T00:14:46.829Z,100864.69
2022-09-23T00:17:14.654Z,100864.78
2022-09-23T00:19:43.897Z,100861.34
2022-09-23T00:22:13.827Z,100858.69
2022-09-23T00:24:41.685Z,100861.19
2022-09-23T00:27:09.798Z,100855.25
2022-09-23T00:29:38.415Z,100852.56
2022-09-23T00:32:06.230Z,100854.38
2022-09-23T00:34:34.011Z,100853.66
2022-09-23T00:37:01.763Z,100848.38
2022-09-23T00:39:31.217Z,100846.53
2022-09-23T00:41:59.020Z,100845.63
2022-09-23T00:44:48.193Z,100844.84
2022-09-23T00:47:29.580Z,100841.47
2022-09-23T00:50:05.254Z,100845.88
2022-09-23T00:52:33.565Z,100839.97
2022-09-23T00:55:09.302Z,100838.94
2022-09-23T00:57:42.730Z,100839.81
2022-09-23T01:00:13.154Z,100831.25
2022-09-23T01:02:41.059Z,100833.91
2022-09-23T01:05:10.305Z,100833.13
2022-09-23T01:07:38.181Z,100824.53
2022-09-23T01:10:10.711Z,100833.22
2022-09-23T01:13:02.910Z,100836.59
2022-09-23T01:15:44.944Z,100834.00
2022-09-23T01:18:31.124Z,100830.38
2022-09-23T01:21:16.605Z,100822.56
2022-09-23T01:24:43.855Z,100824.94
2022-09-23T01:27:36.422Z,100817.97
2022-09-23T01:30:40.790Z,100821.66
2022-09-23T01:33:18.657Z,100816.31
2022-09-23T01:36:07.147Z,100819.75
2022-09-23T01:38:44.918Z,100816.16
2022-09-23T01:41:31.350Z,100813.66
2022-09-23T01:44:06.070Z,100808.41
2022-09-23T01:46:47.350Z,100801.47
2022-09-23T01:49:22.253Z,100809.31
2022-09-23T01:51:59.335Z,100810.19
2022-09-23T01:54:38.700Z,100808.53
2022-09-23T01:57:16.141Z,100805.00
2022-09-23T01:59:52.540Z,100807.69
2022-09-23T02:02:29.288Z,100805.78
2022-09-23T02:05:04.183Z,100797.88
2022-09-23T02:07:40.634Z,100794.44
2022-09-23T02:10:16.691Z,100795.16
2022-09-23T02:12:49.826Z,100798.56
2022-09-23T02:15:24.730Z,100793.25
2022-09-23T02:18:14.453Z,100794.94
2022-09-23T02:20:44.858Z,100791.63
2022-09-23T02:23:19.336Z,100792.34
2022-09-23T02:26:02.661Z,100786.25
2022-09-23T02:28:40.141Z,100786.25
2022-09-23T02:31:16.305Z,100780.94
2022-09-23T02:34:00.043Z,100779.19
2022-09-23T02:36:32.519Z,100775.75
2022-09-23T02:39:08.509Z,100765.38
2022-09-23T02:41:53.453Z,100768.84
2022-09-23T02:44:23.518Z,100771.41
2022-09-23T02:46:53.083Z,100765.31
2022-09-23T02:49:26.416Z,100768.59
2022-09-23T02:51:54.981Z,100760.63
2022-09-23T02:54:27.220Z,100767.50
2022-09-23T02:56:56.449Z,100762.31
2022-09-23T02:59:24.645Z,100761.38
2022-09-23T03:02:14.110Z,100757.13
2022-09-23T03:04:54.789Z,100756.19
2022-09-23T03:07:33.507Z,100753.69
2022-09-23T03:10:15.010Z,100737.97
2022-09-23T03:12:59.450Z,100742.50
2022-09-23T03:15:38.628Z,100745.03
2022-09-23T03:18:15.759Z,100741.56
2022-09-23T03:20:53.437Z,100747.75
2022-09-23T03:23:28.893Z,100745.91
2022-09-23T03:26:02.509Z,100741.56
2022-09-23T03:28:31.509Z,100737.19
2022-09-23T03:31:00.419Z,100737.19
2022-09-23T03:33:29.050Z,100735.53
2022-09-23T03:36:25.366Z,100734.56
2022-09-23T03:39:04.793Z,100730.34
2022-09-23T03:41:40.230Z,100730.34
2022-09-23T03:44:09.201Z,100729.41
2022-09-23T03:46:37.636Z,100728.50
2022-09-23T03:49:15.653Z,100732.19
2022-09-23T03:51:44.998Z,100719.88
2022-09-23T03:54:12.787Z,100726.75
2022-09-23T03:56:40.597Z,100718.66
2022-09-23T03:59:08.418Z,100716.28
2022-09-23T04:01:36.321Z,100713.56
2022-09-23T04:04:04.128Z,100711.59
2022-09-23T04:06:31.903Z,100707.88
2022-09-23T04:09:01.925Z,100708.59
2022-09-23T04:11:29.786Z,100706.78
2022-09-23T04:13:58.027Z,100706.78
2022-09-23T04:16:26.036Z,100701.34
2022-09-23T04:18:53.873Z,100702.91
2022-09-23T04:21:22.046Z,100708.72
2022-09-23T04:23:49.907Z,100710.28
2022-09-23T04:26:19.094Z,100706.81
2022-09-23T04:28:46.869Z,100710.03
2022-09-23T04:31:14.803Z,100703.13
2022-09-23T04:33:42.881Z,100702.38
2022-09-23T04:36:10.983Z,100703.97
2022-09-23T04:38:38.750Z,100697.78
2022-09-23T04:41:08.641Z,100693.97
2022-09-23T04:43:37.916Z,100694.84
2022-09-23T04:46:09.023Z,100691.38
2022-09-23T04:48:38.376Z,100690.69
2022-09-23T04:51:10.641Z,100684.63
2022-09-23T04:53:41.422Z,100680.22
2022-09-23T04:56:12.907Z,100677.50
2022-09-23T04:58:42.857Z,100671.56
2022-09-23T05:01:13.605Z,100672.41
2022-09-23T05:03:43.039Z,100675.94
2022-09-23T05:06:13.780Z,100672.59
2022-09-23T05:08:47.818Z,100666.81
2022-09-23T05:11:16.309Z,100671.00
2022-09-23T05:13:47.032Z,100666.69
2022-09-23T05:16:15.167Z,100671.47
2022-09-23T05:18:45.085Z,100665.56
2022-09-23T05:21:16.167Z,100672.66
2022-09-23T05:23:48.612Z,100669.28
2022-09-23T05:26:16.704Z,100681.28
2022-09-23T05:28:45.890Z,100674.34
2022-09-23T05:31:20.044Z,100676.00
2022-09-23T05:33:52.822Z,100680.59
2022-09-23T05:36:22.070Z,100679.97
2022-09-23T05:38:51.228Z,100680.91
2022-09-23T05:41:23.030Z,100680.78
2022-09-23T05:43:54.487Z,100681.56
2022-09-23T05:46:24.878Z,100695.34
2022-09-23T05:48:52.744Z,100686.72
2022-09-23T05:51:30.126Z,100693.59
2022-09-23T05:54:02.700Z,100698.97
2022-09-23T05:56:31.887Z,100689.38
2022-09-23T05:59:02.344Z,100701.53
2022-09-23T06:01:33.862Z,100688.94
2022-09-23T06:04:08.673Z,100690.91
2022-09-23T06:06:39.159Z,100685.09
2022-09-23T06:09:11.330Z,100688.66
2022-09-23T06:11:39.521Z,100691.53
2022-09-23T06:14:12.983Z,100688.34
2022-09-23T06:16:41.027Z,100690.19
2022-09-23T06:19:09.785Z,100695.75
2022-09-23T06:21:40.511Z,100687.13
2022-09-23T06:24:11.688Z,100695.97
2022-09-23T06:26:42.659Z,100696.28
2022-09-23T06:29:12.475Z,100695.09
2022-09-23T06:31:42.172Z,100688.59
2022-09-23T06:34:13.743Z,100687.00
2022-09-23T06:36:44.955Z,100684.34
2022-09-23T06:39:14.835Z,100683.47
2022-09-23T06:41:47.455Z,100675.16
2022-09-23T06:44:17.192Z,100679.16
2022-09-23T06:46:45.442Z,100680.41
2022-09-23T06:49:13.472Z,100673.03
2022-09-23T06:51:42.718Z,100671.72
2022-09-23T06:54:10.919Z,100670.16
2022-09-23T06:56:40.670Z,100674.03
2022-09-23T06:59:12.906Z,100668.47
2022-09-23T07:01:42.530Z,100673.06
2022-09-23T07:04:10.871Z,100672.59
2022-09-23T07:06:40.273Z,100668.75
2022-09-23T07:09:08.834Z,100660.56
2022-09-23T07:11:36.978Z,100664.44
2022-09-23T07:14:07.828Z,100675.38
2022-09-23T07:16:35.609Z,100669.56
2022-09-23T07:19:05.041Z,100676.00
2022-09-23T07:21:33.632Z,100671.78
2022-09-23T07:24:02.249Z,100671.22
2022-09-23T07:26:30.939Z,100674.97
2022-09-23T07:29:04.695Z,100672.38
2022-09-23T07:31:39.086Z,100677.00
2022-09-23T07:34:11.429Z,100669.25
2022-09-23T07:36:40.976Z,100666.72
2022-09-23T07:39:12.386Z,100670.31
2022-09-23T07:41:44.591Z,100679.91
2022-09-23T07:44:12.953Z,100669.47
2022-09-23T07:46:41.384Z,100671.19
2022-09-23T07:49:10.897Z,100664.13
2022-09-23T07:51:42.450Z,100667.66
2022-09-23T07:54:15.673Z,100671.16
2022-09-23T07:56:44.339Z,100669.38
2022-09-23T07:59:17.120Z,100673.66
2022-09-23T08:01:48.410Z,100672.63
2022-09-23T08:04:20.837Z,100673.41
2022-09-23T08:06:51.514Z,100673.34
2022-09-23T08:09:23.309Z,100669.09
2022-09-23T08:11:52.065Z,100667.44
2022-09-23T08:14:22.164Z,100674.47
2022-09-23T08:16:51.776Z,100675.34
2022-09-23T08:19:21.135Z,100688.41
2022-09-23T08:21:52.041Z,100675.22
2022-09-23T08:24:23.608Z,100676.91
2022-09-23T08:26:53.300Z,100667.03
2022-09-23T08:29:24.343Z,100670.59
2022-09-23T08:31:53.395Z,100671.34
2022-09-23T08:34:23.733Z,100659.88
2022-09-23T08:36:52.306Z,100664.31
2022-09-23T08:39:21.344Z,100667.69
2022-09-23T08:42:14.561Z,100670.06
2022-09-23T08:44:54.201Z,100663.28
2022-09-23T08:47:27.862Z,100660.59
2022-09-23T08:50:08.790Z,100661.41
2022-09-23T08:52:48.897Z,100664.78
2022-09-23T08:55:18.523Z,100660.41
2022-09-23T08:58:24.376Z,100666.78
2022-09-23T09:01:07.863Z,100659.72
2022-09-23T09:03:45.028Z,100666.84
2022-09-23T09:06:21.098Z,100661.47
2022-09-23T09:08:58.793Z,100656.34
2022-09-23T09:11:35.835Z,100658.13
2022-09-23T09:14:17.990Z,100656.47
2022-09-23T09:17:01.162Z,100653.88
2022-09-23T09:19:52.488Z,100647.38
2022-09-23T09:25:43.002Z,100644.69
2022-09-23T09:28:19.866Z,100643.47
2022-09-23T09:30:54.118Z,100642.53
2022-09-23T09:33:32.207Z,100638.69
2022-09-23T09:36:19.019Z,100634.41
2022-09-23T09:38:48.768Z,100642.91
2022-09-23T09:41:21.239Z,100634.94
2022-09-23T09:43:57.613Z,100636.53
2022-09-23T09:46:52.256Z,100636.56
2022-09-23T09:49:38.130Z,100634.75
2022-09-23T09:52:22.440Z,100632.97
2022-09-23T09:54:53.191Z,100633.84
2022-09-23T09:57:35.044Z,100637.28
2022-09-23T10:00:46.045Z,100626.47
2022-09-23T10:03:41.293Z,100630.50
2022-09-23T10:06:23.535Z,100627.06
2022-09-23T10:09:13.580Z,100626.75
2022-09-23T10:12:02.868Z,100625.09
2022-09-23T10:14:31.420Z,100626.19
2022-09-23T10:17:06.006Z,100627.13
2022-09-23T10:19:38.613Z,100625.97
2022-09-23T10:22:19.805Z,100618.84
2022-09-23T10:24:50.983Z,100612.75
2022-09-23T10:27:31.378Z,100615.59
2022-09-23T10:30:03.472Z,100610.09
2022-09-23T10:32:37.214Z,100609.94
2022-09-23T10:35:16.320Z,100607.00
2022-09-23T10:37:48.331Z,100612.13
2022-09-23T10:40:43.808Z,100612.16
2022-09-23T10:43:52.447Z,100606.38
2022-09-23T10:46:45.823Z,100605.00
2022-09-23T10:50:16.541Z,100596.97
2022-09-23T10:53:04.146Z,100607.13
2022-09-23T10:55:49.499Z,100608.75
2022-09-23T10:59:02.320Z,100603.84
2022-09-23T11:01:43.551Z,100598.16
2022-09-23T11:04:39.767Z,100605.09
2022-09-23T11:07:23.706Z,100602.03
2022-09-23T11:10:42.256Z,100594.53
2022-09-23T11:13:30.995Z,100598.81
2022-09-23T11:16:15.104Z,100595.84
2022-09-23T11:19:04.727Z,100592.19
2022-09-23T11:22:00.997Z,100584.66
2022-09-23T11:25:01.230Z,100584.28
2022-09-23T11:27:58.365Z,100588.56
2022-09-23T11:30:43.193Z,100571.75
2022-09-23T11:33:38.429Z,100577.16
2022-09-23T11:36:16.142Z,100574.72
2022-09-23T11:38:49.922Z,100562.38
2022-09-23T11:41:23.474Z,100567.84
2022-09-23T11:44:01.145Z,100562.59
2022-09-23T11:46:40.409Z,100556.31
2022-09-23T11:49:17.154Z,100560.44
2022-09-23T11:52:05.164Z,100553.66
2022-09-23T11:54:43.093Z,100554.72
2022-09-23T11:57:24.623Z,100554.00
2022-09-23T11:59:59.850Z,100553.84
2022-09-23T12:02:44.758Z,100543.78
2022-09-23T12:05:22.113Z,100549.56
2022-09-23T12:07:57.623Z,100551.53
2022-09-23T12:10:41.732Z,100553.94
2022-09-23T12:13:19.620Z,100556.47
2022-09-23T12:16:13.650Z,100545.81
2022-09-23T12:19:11.069Z,100553.66
2022-09-23T12:22:05.760Z,100547.97
2022-09-23T12:24:57.769Z,100542.22
2022-09-23T12:27:36.806Z,100541.13
2022-09-23T12:30:14.214Z,100542.69
2022-09-23T12:32:43.233Z,100539.31
2022-09-23T12:35:25.402Z,100528.56
2022-09-23T12:37:53.805Z,100536.03
2022-09-23T12:40:31.374Z,100534.47
2022-09-23T12:43:01.231Z,100532.16
2022-09-23T12:45:40.213Z,100523.03
2022-09-23T12:48:43.725Z,100530.75
2022-09-23T12:51:21.604Z,100520.13
2022-09-23T12:54:19.270Z,100523.59
2022-09-23T12:57:09.257Z,100534.13
2022-09-23T12:59:59.345Z,100525.84
2022-09-23T13:02:34.730Z,100524.06
2022-09-23T13:05:40.396Z,100515.56
2022-09-23T13:08:16.732Z,100517.84
2022-09-23T13:10:49.362Z,100520.13
2022-09-23T13:13:26.957Z,100517.75
2022-09-23T13:15:55.140Z,100511.66
2022-09-23T13:18:40.309Z,100507.03
2022-09-23T13:21:18.737Z,100506.28
2022-09-23T13:24:18.716Z,100500.53
2022-09-23T13:26:50.851Z,100498.50
2022-09-23T13:29:25.939Z,100498.50
2022-09-23T13:31:57.539Z,100501.81
2022-09-23T13:34:33.049Z,100490.16
2022-09-23T13:37:22.172Z,100488.25
2022-09-23T13:39:51.957Z,100479.81
2022-09-23T13:42:27.296Z,100483.91
2022-09-23T13:44:58.944Z,100476.09
2022-09-23T13:47:30.947Z,100471.91
2022-09-23T13:49:59.169Z,100472.63
2022-09-23T13:52:31.681Z,100470.72
2022-09-23T13:55:00.835Z,100469.56
2022-09-23T13:57:33.742Z,100478.91
2022-09-23T14:00:16.320Z,100470.59
2022-09-23T14:02:46.764Z,100467.06
2022-09-23T14:05:24.541Z,100458.59
2022-09-23T14:07:55.033Z,100471.13
2022-09-23T14:10:27.539Z,100466.91
2022-09-23T14:12:56.803Z,100462.56
2022-09-23T14:15:25.472Z,100465.00
2022-09-23T14:18:01.539Z,100456.66
2022-09-23T14:20:29.377Z,100458.06
2022-09-23T14:23:06.906Z,100461.44
2022-09-23T14:25:36.687Z,100452.06
2022-09-23T14:28:05.190Z,100451.50
2022-09-23T14:30:33.386Z,100450.22
2022-09-23T14:33:05.538Z,100455.59
2022-09-23T14:35:43.250Z,100456.91
2022-09-23T14:38:29.776Z,100453.56
2022-09-23T14:41:29.414Z,100451.91
2022-09-23T14:44:00.652Z,100451.50
2022-09-23T14:46:32.958Z,100445.94
2022-09-23T14:49:07.437Z,100448.16
2022-09-23T14:51:47.875Z,100445.78
2022-09-23T14:54:37.000Z,100438.50
2022-09-23T14:57:30.404Z,100430.88
2022-09-23T15:00:02.337Z,100440.50
2022-09-23T15:02:36.223Z,100441.22
2022-09-23T15:05:19.622Z,100440.59
2022-09-23T15:07:51.499Z,100436.75
2022-09-23T15:10:25.376Z,100437.25
2022-09-23T15:13:04.147Z,100436.69
2022-09-23T15:15:32.461Z,100431.63
2022-09-23T15:18:06.259Z,100428.13
2022-09-23T15:20:35.429Z,100427.22
2022-09-23T15:23:03.788Z,100431.75
2022-09-23T15:25:35.391Z,100425.94
2022-09-23T15:28:19.429Z,100426.72
2022-09-23T15:30:47.244Z,100419.28
2022-09-23T15:33:15.154Z,100426.03
2022-09-23T15:35:47.111Z,100419.69
2022-09-23T15:38:15.025Z,100428.78
2022-09-23T15:40:42.937Z,100424.88
2022-09-23T15:43:20.216Z,100420.47
2022-09-23T15:45:53.007Z,100415.25
2022-09-23T15:48:25.786Z,100416.84
2022-09-23T15:50:55.265Z,100415.81
2022-09-23T15:53:27.086Z,100412.38
2022-09-23T15:55:54.981Z,100415.94
2022-09-23T15:58:27.657Z,100408.03
2022-09-23T16:00:57.458Z,100411.72
2022-09-23T16:03:28.500Z,100416.19
2022-09-23T16:06:00.459Z,100416.25
2022-09-23T16:08:28.875Z,100415.50
2022-09-23T16:10:56.753Z,100409.25
2022-09-23T16:13:26.020Z,100415.41
2022-09-23T16:15:54.063Z,100416.31
2022-09-23T16:18:22.152Z,100412.81
2022-09-23T16:20:50.903Z,100407.59
2022-09-23T16:23:34.047Z,100408.63
2022-09-23T16:26:07.189Z,100416.75
2022-09-23T16:28:36.521Z,100414.16
2022-09-23T16:31:04.751Z,100409.81
2022-09-23T16:33:32.624Z,100404.56
2022-09-23T16:36:00.884Z,100412.50
2022-09-23T16:38:29.412Z,100409.03
2022-09-23T16:41:00.141Z,100406.50
2022-09-23T16:43:39.501Z,100405.75
2022-09-23T16:46:12.090Z,100400.59
2022-09-23T16:48:40.778Z,100412.88
2022-09-23T16:51:13.114Z,100408.53
2022-09-23T16:53:42.343Z,100413.09
2022-09-23T16:56:12.876Z,100408.69
2022-09-23T16:58:40.937Z,100409.66
2022-09-23T17:01:36.929Z,100413.28
2022-09-23T17:04:05.093Z,100414.28
2022-09-23T17:06:33.091Z,100416.13
2022-09-23T17:09:01.185Z,100419.69
2022-09-23T17:11:33.425Z,100418.88
2022-09-23T17:14:05.537Z,100416.34
2022-09-23T17:16:35.073Z,100417.28
2022-09-23T17:19:08.070Z,100412.97
2022-09-23T17:21:36.647Z,100414.81
2022-09-23T17:24:05.869Z,100409.66
2022-09-23T17:26:34.166Z,100407.06
2022-09-23T17:29:05.520Z,100408.00
2022-09-23T17:31:34.892Z,100408.97
2022-09-23T17:34:02.873Z,100404.63
2022-09-23T17:36:30.659Z,100410.78
2022-09-23T17:38:58.413Z,100407.28
2022-09-23T17:41:27.382Z,100407.31
2022-09-23T17:44:00.341Z,100412.59
2022-09-23T17:46:30.021Z,100414.34
2022-09-23T17:48:59.241Z,100414.44
2022-09-23T17:51:27.509Z,100404.03
2022-09-23T17:53:55.865Z,100407.56
2022-09-23T17:56:26.225Z,100411.03
2022-09-23T17:58:54.563Z,100405.84
2022-09-23T18:01:24.955Z,100409.41
2022-09-23T18:04:05.556Z,100403.34
2022-09-23T18:06:36.969Z,100407.81
2022-09-23T18:09:08.465Z,100411.44
2022-09-23T18:11:40.558Z,100414.09
2022-09-23T18:14:15.475Z,100401.91
2022-09-23T18:16:48.345Z,100399.34
2022-09-23T18:19:22.548Z,100399.38
2022-09-23T18:21:54.358Z,100400.28
2022-09-23T18:24:38.738Z,100400.34
2022-09-23T18:27:07.606Z,100396.00
2022-09-23T18:29:38.045Z,100389.03
2022-09-23T18:32:07.591Z,100391.72
2022-09-23T18:34:39.588Z,100388.31
2022-09-23T18:37:15.339Z,100384.81
2022-09-23T18:39:44.912Z,100388.31
2022-09-23T18:42:13.014Z,100389.19
2022-09-23T18:44:42.205Z,100386.56
2022-09-23T18:47:30.025Z,100383.97
2022-09-23T18:50:17.691Z,100394.44
2022-09-23T18:52:45.530Z,100387.47
2022-09-23T18:55:13.539Z,100383.13
2022-09-23T18:57:41.755Z,100387.53
2022-09-23T19:00:11.596Z,100389.25
2022-09-23T19:02:39.344Z,100388.34
2022-09-23T19:05:09.397Z,100390.13
2022-09-23T19:07:37.665Z,100394.50
2022-09-23T19:10:08.091Z,100395.38
2022-09-23T19:12:37.483Z,100397.97
2022-09-23T19:15:06.498Z,100393.63
2022-09-23T19:17:36.924Z,100391.03
2022-09-23T19:20:06.318Z,100409.34
2022-09-23T19:22:38.159Z,100407.59
2022-09-23T19:25:08.753Z,100404.09
2022-09-23T19:27:37.018Z,100404.97
2022-09-23T19:30:08.230Z,100401.47
2022-09-23T19:32:36.153Z,100406.72
2022-09-23T19:35:04.685Z,100396.25
2022-09-23T19:37:33.359Z,100398.03
2022-09-23T19:40:02.586Z,100400.63
2022-09-23T19:42:30.694Z,100401.50
2022-09-23T19:44:58.490Z,100397.16
2022-09-23T19:47:26.278Z,100397.16
2022-09-23T19:49:54.190Z,100396.28
2022-09-23T19:52:21.959Z,100396.28
2022-09-23T19:54:52.866Z,100392.78
2022-09-23T19:57:22.089Z,100398.91
2022-09-23T19:59:51.042Z,100400.63
2022-09-23T20:02:18.842Z,100400.66
2022-09-23T20:04:46.686Z,100396.28
2022-09-23T20:07:14.920Z,100401.50
2022-09-23T20:09:43.326Z,100397.13
2022-09-23T20:12:12.810Z,100392.78
2022-09-23T20:14:41.944Z,100391.06
2022-09-23T20:17:10.145Z,100389.28
2022-09-23T20:19:38.018Z,100383.22
2022-09-23T20:22:25.964Z,100384.94
2022-09-23T20:24:56.208Z,100379.72
2022-09-23T20:27:25.382Z,100381.47
2022-09-23T20:29:55.706Z,100377.97
2022-09-23T20:32:25.487Z,100382.34
2022-09-23T20:34:54.502Z,100389.31
2022-09-23T20:37:24.694Z,100386.72
2022-09-23T20:39:53.504Z,100384.09
2022-09-23T20:42:21.758Z,100395.41
2022-09-23T20:44:50.919Z,100394.53
2022-09-23T20:47:24.398Z,100391.03
2022-09-23T20:49:58.691Z,100391.84
2022-09-23T20:52:27.527Z,100387.50
2022-09-23T20:54:55.499Z,100382.34
2022-09-23T20:57:23.368Z,100384.88
2022-09-23T20:59:51.779Z,100384.91
2022-09-23T21:02:21.566Z,100382.28
2022-09-23T21:04:49.559Z,100389.25
2022-09-23T21:07:17.790Z,100384.09
2022-09-23T21:09:45.568Z,100381.44
2022-09-23T21:12:13.366Z,100381.47
2022-09-23T21:14:41.192Z,100368.38
2022-09-23T21:17:09.219Z,100366.66
2022-09-23T21:19:41.479Z,100367.53
2022-09-23T21:22:09.560Z,100364.88
2022-09-23T21:25:16.053Z,100358.78
2022-09-23T21:27:27.473Z,100352.72
2022-09-23T21:29:55.308Z,100353.56
2022-09-23T21:32:23.097Z,100351.84
2022-09-23T21:34:52.485Z,100360.53
2022-09-23T21:37:21.559Z,100353.56
2022-09-23T21:40:08.505Z,100350.94
2022-09-23T21:42:36.883Z,100367.47
2022-09-23T21:45:06.277Z,100352.66
2022-09-23T21:47:34.128Z,100352.69
2022-09-23T21:50:04.116Z,100360.50
2022-09-23T21:52:31.959Z,100363.97
2022-09-23T21:54:59.972Z,100357.88
2022-09-23T21:57:30.403Z,100360.47
2022-09-23T21:59:58.437Z,100364.84
2022-09-23T22:02:28.416Z,100357.00
2022-09-23T22:04:56.689Z,100357.00
2022-09-23T22:07:26.537Z,100353.53
2022-09-23T22:09:54.568Z,100358.75
2022-09-23T22:12:24.003Z,100349.16
2022-09-23T22:14:52.130Z,100347.44
2022-09-23T22:17:21.078Z,100343.94
2022-09-23T22:19:49.189Z,100351.78
2022-09-23T22:22:19.623Z,100342.19
2022-09-23T22:24:49.171Z,100344.88
2022-09-23T22:27:19.723Z,100340.50
2022-09-23T22:30:07.839Z,100336.97
2022-09-23T22:32:41.728Z,100342.19
2022-09-23T22:35:13.350Z,100336.97
2022-09-23T22:37:41.525Z,100336.97
2022-09-23T22:40:14.342Z,100335.25
2022-09-23T22:42:43.720Z,100336.97
2022-09-23T22:45:12.917Z,100338.72
2022-09-23T22:47:45.813Z,100330.88
2022-09-23T22:50:14.613Z,100324.78
2022-09-23T22:52:43.619Z,100325.66
2022-09-23T22:55:13.557Z,100323.03
2022-09-23T22:57:42.959Z,100323.88
2022-09-23T23:00:13.879Z,100319.56
2022-09-23T23:02:42.297Z,100316.06
2022-09-23T23:05:11.100Z,100316.09
2022-09-23T23:07:39.374Z,100311.75
2022-09-23T23:10:12.608Z,100315.22
2022-09-23T23:12:41.468Z,100310.84
2022-09-23T23:15:12.553Z,100313.44
2022-09-23T23:17:43.260Z,100316.06
2022-09-23T23:20:12.005Z,100316.06
2022-09-23T23:22:39.856Z,100315.19
2022-09-23T23:25:09.912Z,100319.53
2022-09-23T23:27:39.192Z,100316.06
2022-09-23T23:30:11.248Z,100309.09
2022-09-23T23:32:39.309Z,100300.38
2022-09-23T23:35:09.463Z,100303.88
2022-09-23T23:37:39.159Z,100300.38
2022-09-23T23:40:08.704Z,100301.25
2022-09-23T23:42:36.897Z,100305.59
2022-09-23T23:45:08.587Z,100300.38
2022-09-23T23:47:36.811Z,100298.63
2022-09-23T23:50:05.561Z,100298.63
2022-09-23T23:52:33.507Z,100297.75
2022-09-23T23:55:01.592Z,100300.38
2022-09-23T23:57:30.466Z,100303.84
2022-09-23T23:59:58.649Z,100292.53
